createdAt,value
2018-12-12T00:00:35.163Z,3.49
2018-12-12T00:03:03.630Z,3.50
2018-12-12T00:05:33.202Z,3.53
2018-12-12T00:08:01.662Z,3.50
2018-12-12T00:10:30.503Z,3.50
2018-12-12T00:12:58.937Z,3.48
2018-12-12T00:15:27.898Z,3.48
2018-12-12T00:17:58.247Z,3.48
2018-12-12T00:20:26.953Z,3.49
2018-12-12T00:22:55.774Z,3.41
2018-12-12T00:25:24.205Z,3.36
2018-12-12T00:27:52.657Z,3.40
2018-12-12T00:30:21.126Z,3.38
2018-12-12T00:32:50.439Z,3.43
2018-12-12T00:35:19.175Z,3.47
2018-12-12T00:37:47.640Z,3.40
2018-12-12T00:40:16.978Z,3.33
2018-12-12T00:42:46.321Z,3.35
2018-12-12T00:45:14.761Z,3.25
2018-12-12T00:47:43.226Z,3.21
2018-12-12T00:50:13.389Z,3.22
2018-12-12T00:52:42.094Z,3.27
2018-12-12T00:55:11.043Z,3.31
2018-12-12T00:57:40.053Z,3.34
2018-12-12T01:00:08.977Z,3.39
2018-12-12T01:02:37.438Z,3.35
2018-12-12T01:05:06.773Z,3.37
2018-12-12T01:07:35.215Z,3.44
2018-12-12T01:10:03.991Z,3.45
2018-12-12T01:12:32.447Z,3.44
2018-12-12T01:15:01.231Z,3.41
2018-12-12T01:17:31.804Z,3.50
2018-12-12T01:20:02.306Z,3.49
2018-12-12T01:22:31.200Z,3.55
2018-12-12T01:24:59.849Z,3.57
2018-12-12T01:27:28.883Z,3.65
2018-12-12T01:29:58.216Z,3.59
2018-12-12T01:32:27.124Z,3.65
2018-12-12T01:34:56.262Z,3.66
2018-12-12T01:37:25.125Z,3.59
2018-12-12T01:39:53.780Z,3.59
2018-12-12T01:42:22.452Z,3.59
2018-12-12T01:44:51.598Z,3.60
2018-12-12T01:47:20.054Z,3.56
2018-12-12T01:49:48.883Z,3.60
2018-12-12T01:52:17.842Z,3.58
2018-12-12T01:54:46.634Z,3.54
2018-12-12T01:57:15.101Z,3.47
2018-12-12T01:59:43.725Z,3.38
2018-12-12T02:02:13.349Z,3.42
2018-12-12T02:04:42.029Z,3.44
2018-12-12T02:07:11.881Z,3.47
2018-12-12T02:09:40.324Z,3.45
2018-12-12T02:12:09.828Z,3.53
2018-12-12T02:14:39.840Z,3.53
2018-12-12T02:17:08.261Z,3.53
2018-12-12T02:19:36.724Z,3.53
2018-12-12T02:22:05.155Z,3.53
2018-12-12T02:24:33.635Z,3.54
2018-12-12T02:27:02.036Z,3.48
2018-12-12T02:29:30.491Z,3.42
2018-12-12T02:31:58.937Z,3.42
2018-12-12T02:34:27.371Z,3.43
2018-12-12T02:36:56.130Z,3.44
2018-12-12T02:39:26.628Z,3.44
2018-12-12T02:41:55.895Z,3.48
2018-12-12T02:44:25.713Z,3.45
2018-12-12T02:46:54.803Z,3.42
2018-12-12T02:49:24.672Z,3.45
2018-12-12T02:51:53.433Z,3.37
2018-12-12T02:54:21.873Z,3.42
2018-12-12T02:56:50.287Z,3.38
2018-12-12T02:59:19.099Z,3.36
2018-12-12T03:01:47.524Z,3.35
2018-12-12T03:04:16.011Z,3.26
2018-12-12T03:06:44.470Z,3.28
2018-12-12T03:09:13.976Z,3.29
2018-12-12T03:11:43.264Z,3.34
2018-12-12T03:14:11.776Z,3.34
2018-12-12T03:16:42.000Z,3.32
2018-12-12T03:19:12.736Z,3.23
2018-12-12T03:21:41.169Z,3.30
2018-12-12T03:24:10.208Z,3.36
2018-12-12T03:26:39.713Z,3.29
2018-12-12T03:29:08.294Z,3.31
2018-12-12T03:31:36.718Z,3.23
2018-12-12T03:34:05.791Z,3.19
2018-12-12T03:36:34.230Z,3.18
2018-12-12T03:39:02.788Z,3.14
2018-12-12T03:41:32.038Z,3.19
2018-12-12T03:44:00.469Z,3.18
2018-12-12T03:46:29.855Z,3.19
2018-12-12T03:48:58.711Z,3.17
2018-12-12T03:51:28.267Z,3.20
2018-12-12T03:53:57.087Z,3.23
2018-12-12T03:56:26.919Z,3.20
2018-12-12T03:58:56.050Z,3.24
2018-12-12T04:01:25.054Z,3.31
2018-12-12T04:03:53.522Z,3.26
2018-12-12T04:06:21.982Z,3.41
2018-12-12T04:08:51.466Z,3.45
2018-12-12T04:11:19.930Z,3.44
2018-12-12T04:13:49.730Z,3.43
2018-12-12T04:16:18.526Z,3.40
2018-12-12T04:18:48.495Z,3.34
2018-12-12T04:21:16.943Z,3.28
2018-12-12T04:23:45.379Z,3.27
2018-12-12T04:26:15.033Z,3.30
2018-12-12T04:28:43.551Z,3.23
2018-12-12T04:31:11.972Z,3.19
2018-12-12T04:33:40.875Z,3.08
2018-12-12T04:36:10.385Z,3.15
2018-12-12T04:38:39.245Z,3.10
2018-12-12T04:41:08.172Z,3.17
2018-12-12T04:43:36.640Z,3.15
2018-12-12T04:46:05.594Z,3.10
2018-12-12T04:48:34.889Z,3.11
2018-12-12T04:51:04.310Z,3.09
2018-12-12T04:53:32.771Z,3.00
2018-12-12T04:56:01.719Z,2.99
2018-12-12T04:58:31.242Z,3.03
2018-12-12T05:01:00.603Z,2.99
2018-12-12T05:03:29.297Z,3.01
2018-12-12T05:05:59.222Z,3.02
2018-12-12T05:08:27.676Z,2.99
2018-12-12T05:10:56.128Z,3.05
2018-12-12T05:13:24.557Z,3.06
2018-12-12T05:15:53.604Z,3.14
2018-12-12T05:18:22.029Z,3.19
2018-12-12T05:20:51.648Z,3.06
2018-12-12T05:23:20.122Z,3.09
2018-12-12T05:25:48.533Z,3.00
2018-12-12T05:28:16.994Z,2.99
2018-12-12T05:30:46.317Z,2.92
2018-12-12T05:33:14.769Z,2.75
2018-12-12T05:35:44.435Z,2.73
2018-12-12T05:38:13.209Z,2.64
2018-12-12T05:40:43.240Z,2.45
2018-12-12T05:43:12.137Z,2.27
2018-12-12T05:45:42.242Z,2.24
2018-12-12T05:48:11.374Z,2.24
2018-12-12T05:50:40.332Z,2.31
2018-12-12T05:53:09.991Z,2.39
2018-12-12T05:55:38.455Z,2.38
2018-12-12T05:58:08.581Z,2.30
2018-12-12T06:00:38.185Z,2.25
2018-12-12T06:03:06.621Z,2.22
2018-12-12T06:05:35.986Z,2.22
2018-12-12T06:08:06.558Z,2.22
2018-12-12T06:10:35.055Z,2.20
2018-12-12T06:13:03.562Z,2.20
2018-12-12T06:15:32.893Z,2.17
2018-12-12T06:18:01.732Z,2.13
2018-12-12T06:20:30.406Z,2.13
2018-12-12T06:23:00.065Z,2.12
2018-12-12T06:25:29.387Z,2.13
2018-12-12T06:27:57.847Z,2.13
2018-12-12T06:30:26.515Z,2.11
2018-12-12T06:32:54.965Z,2.15
2018-12-12T06:35:23.906Z,2.15
2018-12-12T06:37:53.658Z,2.09
2018-12-12T06:40:23.609Z,2.07
2018-12-12T06:42:53.065Z,2.07
2018-12-12T06:45:23.107Z,2.10
2018-12-12T06:47:51.805Z,2.08
2018-12-12T06:50:21.044Z,2.10
2018-12-12T06:52:49.505Z,2.11
2018-12-12T06:55:18.509Z,2.16
2018-12-12T06:58:01.212Z,2.17
2018-12-12T07:00:36.805Z,2.22
2018-12-12T07:03:07.321Z,2.23
2018-12-12T07:05:36.918Z,2.27
2018-12-12T07:08:08.032Z,2.27
2018-12-12T07:10:41.295Z,2.23
2018-12-12T07:13:14.131Z,2.25
2018-12-12T07:15:50.471Z,2.22
2018-12-12T07:18:23.702Z,2.24
2018-12-12T07:23:45.811Z,2.27
2018-12-12T07:26:19.593Z,2.27
2018-12-12T07:28:53.948Z,2.24
2018-12-12T07:31:35.760Z,2.18
2018-12-12T07:34:14.256Z,2.11
2018-12-12T07:36:54.617Z,2.10
2018-12-12T07:39:25.077Z,2.09
2018-12-12T07:41:54.473Z,2.10
2018-12-12T07:47:27.106Z,2.19
2018-12-12T07:50:01.554Z,2.27
2018-12-12T07:52:31.165Z,2.37
2018-12-12T07:55:08.886Z,2.41
2018-12-12T07:57:41.771Z,2.45
2018-12-12T08:00:13.908Z,2.50
2018-12-12T08:02:42.993Z,2.55
2018-12-12T08:05:16.333Z,2.51
2018-12-12T08:07:50.812Z,2.57
2018-12-12T08:10:29.960Z,2.55
2018-12-12T08:13:00.352Z,2.55
2018-12-12T08:15:35.737Z,2.61
2018-12-12T08:18:04.186Z,2.55
2018-12-12T08:20:33.243Z,2.59
2018-12-12T08:23:02.151Z,2.64
2018-12-12T08:25:34.679Z,2.69
2018-12-12T08:28:05.760Z,2.71
2018-12-12T08:30:38.039Z,2.69
2018-12-12T08:33:11.185Z,2.65
2018-12-12T08:35:44.399Z,2.75
2018-12-12T08:38:20.992Z,2.78
2018-12-12T08:41:00.857Z,2.77
2018-12-12T08:43:30.533Z,2.85
2018-12-12T08:46:05.603Z,2.93
2018-12-12T08:48:46.174Z,2.94
2018-12-12T08:51:25.979Z,3.01
2018-12-12T08:53:54.613Z,3.13
2018-12-12T08:56:24.343Z,3.06
2018-12-12T08:58:54.125Z,3.30
2018-12-12T09:01:27.087Z,3.35
2018-12-12T09:03:56.497Z,3.48
2018-12-12T09:06:28.491Z,3.58
2018-12-12T09:08:57.339Z,3.43
2018-12-12T09:11:26.799Z,3.41
2018-12-12T09:13:55.343Z,3.57
2018-12-12T09:16:23.894Z,3.85
2018-12-12T09:18:53.195Z,4.09
2018-12-12T09:21:21.656Z,4.07
2018-12-12T09:23:50.932Z,4.05
2018-12-12T09:26:19.775Z,4.06
2018-12-12T09:28:49.203Z,4.14
2018-12-12T09:31:31.106Z,4.14
2018-12-12T09:34:03.093Z,4.19
2018-12-12T09:36:35.161Z,4.25
2018-12-12T09:39:08.108Z,4.18
2018-12-12T09:41:38.147Z,4.00
2018-12-12T09:44:07.991Z,4.01
2018-12-12T09:46:39.576Z,3.99
2018-12-12T09:49:09.790Z,4.26
2018-12-12T09:51:41.692Z,4.52
2018-12-12T09:54:11.259Z,4.71
2018-12-12T09:56:40.349Z,4.84
2018-12-12T09:59:09.211Z,4.83
2018-12-12T10:01:38.009Z,4.42
2018-12-12T10:04:06.805Z,4.22
2018-12-12T10:06:35.653Z,4.08
2018-12-12T10:09:14.249Z,3.97
2018-12-12T10:11:49.604Z,3.99
2018-12-12T10:14:19.525Z,4.08
2018-12-12T10:16:48.407Z,4.18
2018-12-12T10:19:18.425Z,3.99
2018-12-12T10:21:48.222Z,3.93
2018-12-12T10:24:18.190Z,3.97
2018-12-12T10:26:48.043Z,4.03
2018-12-12T10:29:21.747Z,3.88
2018-12-12T10:31:51.809Z,3.88
2018-12-12T10:34:20.852Z,3.89
2018-12-12T10:36:49.916Z,3.92
2018-12-12T10:39:20.649Z,3.77
2018-12-12T10:41:49.135Z,3.79
2018-12-12T10:44:19.285Z,3.77
2018-12-12T10:46:48.235Z,3.82
2018-12-12T10:49:17.874Z,3.89
2018-12-12T10:51:48.645Z,3.85
2018-12-12T10:54:18.862Z,3.96
2018-12-12T10:56:47.816Z,4.00
2018-12-12T10:59:17.607Z,4.00
2018-12-12T11:01:48.758Z,4.15
2018-12-12T11:04:19.272Z,4.04
2018-12-12T11:06:48.314Z,4.08
2018-12-12T11:09:17.826Z,4.21
2018-12-12T11:11:46.491Z,4.19
2018-12-12T11:14:15.222Z,4.22
2018-12-12T11:16:44.036Z,4.20
2018-12-12T11:19:12.489Z,4.17
2018-12-12T11:21:40.933Z,4.23
2018-12-12T11:24:09.690Z,4.37
2018-12-12T11:26:38.354Z,4.52
2018-12-12T11:29:06.832Z,5.15
2018-12-12T11:31:35.576Z,5.81
2018-12-12T11:34:04.121Z,6.71
2018-12-12T11:36:32.958Z,7.12
2018-12-12T11:39:03.423Z,7.64
2018-12-12T11:41:31.878Z,8.06
2018-12-12T11:44:00.327Z,8.28
2018-12-12T11:46:29.043Z,8.73
2018-12-12T11:48:58.390Z,8.98
2018-12-12T11:51:27.267Z,9.33
2018-12-12T11:53:56.047Z,9.96
2018-12-12T11:56:24.766Z,9.42
2018-12-12T11:58:52.686Z,8.94
2018-12-12T12:01:21.852Z,8.86
2018-12-12T12:03:56.755Z,7.54
2018-12-12T12:06:23.172Z,7.50
2018-12-12T12:08:52.192Z,6.81
2018-12-12T12:11:21.734Z,6.44
2018-12-12T12:13:51.386Z,6.15
2018-12-12T12:16:20.343Z,6.33
2018-12-12T12:18:50.460Z,6.03
2018-12-12T12:21:19.649Z,6.16
2018-12-12T12:23:49.002Z,6.20
2018-12-12T12:26:17.492Z,6.07
2018-12-12T12:28:45.912Z,5.72
2018-12-12T12:31:14.904Z,5.55
2018-12-12T12:33:45.084Z,5.89
2018-12-12T12:36:14.139Z,6.43
2018-12-12T12:38:45.053Z,7.89
2018-12-12T12:41:15.299Z,9.03
2018-12-12T12:43:44.346Z,9.99
2018-12-12T12:46:14.198Z,10.25
2018-12-12T12:48:43.445Z,10.63
2018-12-12T12:51:15.147Z,11.60
2018-12-12T12:53:46.267Z,12.06
2018-12-12T12:56:23.275Z,11.99
2018-12-12T12:58:52.225Z,11.57
2018-12-12T13:01:21.623Z,10.76
2018-12-12T13:03:53.699Z,9.05
2018-12-12T13:06:26.124Z,9.86
2018-12-12T13:08:56.795Z,10.34
2018-12-12T13:11:27.089Z,11.46
2018-12-12T13:13:57.030Z,12.65
2018-12-12T13:16:26.819Z,13.26
2018-12-12T13:18:55.541Z,13.90
2018-12-12T13:21:24.017Z,12.38
2018-12-12T13:23:52.481Z,11.31
2018-12-12T13:26:20.927Z,10.94
2018-12-12T13:28:49.392Z,9.63
2018-12-12T13:31:18.396Z,9.41
2018-12-12T13:33:47.686Z,7.70
2018-12-12T13:36:18.362Z,7.74
2018-12-12T13:38:46.807Z,7.15
2018-12-12T13:41:16.091Z,7.38
2018-12-12T13:43:45.118Z,7.04
2018-12-12T13:46:14.022Z,7.24
2018-12-12T13:48:42.704Z,7.35
2018-12-12T13:51:11.131Z,6.81
2018-12-12T13:53:39.799Z,6.60
2018-12-12T13:56:08.485Z,6.43
2018-12-12T13:58:37.687Z,5.76
2018-12-12T14:01:06.492Z,5.68
2018-12-12T14:03:35.730Z,5.54
2018-12-12T14:06:04.552Z,5.68
2018-12-12T14:08:33.895Z,5.90
2018-12-12T14:11:03.025Z,5.73
2018-12-12T14:13:32.249Z,5.56
2018-12-12T14:16:00.692Z,5.72
2018-12-12T14:18:30.351Z,5.91
2018-12-12T14:20:59.898Z,6.03
2018-12-12T14:23:28.555Z,6.05
2018-12-12T14:25:58.906Z,6.02
2018-12-12T14:28:27.373Z,5.82
2018-12-12T14:30:56.818Z,5.43
2018-12-12T14:33:25.503Z,5.52
2018-12-12T14:35:53.970Z,5.53
2018-12-12T14:38:26.092Z,5.61
2018-12-12T14:40:55.656Z,5.55
2018-12-12T14:43:26.164Z,5.26
2018-12-12T14:45:57.532Z,5.40
2018-12-12T14:48:30.298Z,5.20
2018-12-12T14:50:59.643Z,5.04
2018-12-12T14:53:30.131Z,4.91
2018-12-12T14:55:58.607Z,4.99
2018-12-12T14:58:28.283Z,4.99
2018-12-12T15:00:57.618Z,5.01
2018-12-12T15:03:26.091Z,4.89
2018-12-12T15:05:54.562Z,4.80
2018-12-12T15:08:25.154Z,4.89
2018-12-12T15:10:59.533Z,4.99
2018-12-12T15:13:37.235Z,4.91
2018-12-12T15:16:07.142Z,4.76
2018-12-12T15:18:39.358Z,4.83
2018-12-12T15:21:17.825Z,4.84
2018-12-12T15:23:50.181Z,4.84
2018-12-12T15:26:24.443Z,4.80
2018-12-12T15:28:57.679Z,4.58
2018-12-12T15:31:29.704Z,4.53
2018-12-12T15:34:04.961Z,4.44
2018-12-12T15:36:39.633Z,4.46
2018-12-12T15:39:11.894Z,4.38
2018-12-12T15:41:47.699Z,4.40
2018-12-12T15:44:18.456Z,4.27
2018-12-12T15:46:47.870Z,4.39
2018-12-12T15:49:26.856Z,4.35
2018-12-12T15:52:00.981Z,4.40
2018-12-12T15:54:34.272Z,4.22
2018-12-12T15:57:05.725Z,4.36
2018-12-12T15:59:35.635Z,4.30
2018-12-12T16:02:14.742Z,4.47
2018-12-12T16:04:51.622Z,4.45
2018-12-12T16:07:21.178Z,4.31
2018-12-12T16:09:51.571Z,4.26
2018-12-12T16:12:23.935Z,4.31
2018-12-12T16:14:57.957Z,4.24
2018-12-12T16:17:27.934Z,4.20
2018-12-12T16:19:59.046Z,4.31
2018-12-12T16:22:30.690Z,4.31
2018-12-12T16:25:02.759Z,4.35
2018-12-12T16:27:33.746Z,4.41
2018-12-12T16:30:05.727Z,4.23
2018-12-12T16:32:37.612Z,4.14
2018-12-12T16:35:10.585Z,4.15
2018-12-12T16:37:39.962Z,4.16
2018-12-12T16:40:09.633Z,4.23
2018-12-12T16:42:39.050Z,4.16
2018-12-12T16:45:08.330Z,4.22
2018-12-12T16:47:36.857Z,4.16
2018-12-12T16:50:06.182Z,4.19
2018-12-12T16:52:36.123Z,4.19
2018-12-12T16:55:15.389Z,4.19
2018-12-12T16:57:45.159Z,4.08
2018-12-12T17:00:14.266Z,4.07
2018-12-12T17:02:43.592Z,4.06
2018-12-12T17:05:39.369Z,4.10
2018-12-12T17:08:16.460Z,3.99
2018-12-12T17:10:45.882Z,4.09
2018-12-12T17:13:27.569Z,3.93
2018-12-12T17:15:58.117Z,4.00
2018-12-12T17:18:30.701Z,4.06
2018-12-12T17:21:01.760Z,3.90
2018-12-12T17:23:31.106Z,4.03
2018-12-12T17:25:59.593Z,3.99
2018-12-12T17:28:28.094Z,3.98
2018-12-12T17:30:56.722Z,4.07
2018-12-12T17:33:25.851Z,3.88
2018-12-12T17:35:55.787Z,3.85
2018-12-12T17:38:27.524Z,3.81
2018-12-12T17:40:57.864Z,3.73
2018-12-12T17:43:27.013Z,3.77
2018-12-12T17:46:02.624Z,3.78
2018-12-12T17:48:34.192Z,3.67
2018-12-12T17:51:02.626Z,3.80
2018-12-12T17:53:31.214Z,3.82
2018-12-12T17:55:59.918Z,3.79
2018-12-12T17:58:31.470Z,3.67
2018-12-12T18:01:01.993Z,3.61
2018-12-12T18:03:31.049Z,3.65
2018-12-12T18:06:00.986Z,3.69
2018-12-12T18:08:33.237Z,3.75
2018-12-12T18:11:01.734Z,3.80
2018-12-12T18:13:31.003Z,3.79
2018-12-12T18:16:04.710Z,3.72
2018-12-12T18:18:38.082Z,3.77
2018-12-12T18:21:06.659Z,3.80
2018-12-12T18:23:41.607Z,3.84
2018-12-12T18:26:10.688Z,3.84
2018-12-12T18:28:39.888Z,3.81
2018-12-12T18:31:13.340Z,3.77
2018-12-12T18:33:42.018Z,3.74
2018-12-12T18:36:10.887Z,3.76
2018-12-12T18:38:46.804Z,3.77
2018-12-12T18:41:19.190Z,3.78
2018-12-12T18:43:50.638Z,3.69
2018-12-12T18:46:19.771Z,3.79
2018-12-12T18:48:49.543Z,3.82
2018-12-12T18:51:20.416Z,3.84
2018-12-12T18:53:56.332Z,3.76
2018-12-12T18:56:26.327Z,3.81
2018-12-12T18:58:55.383Z,3.91
2018-12-12T19:01:24.121Z,3.92
2018-12-12T19:03:54.347Z,3.91
2018-12-12T19:06:23.483Z,3.94
2018-12-12T19:08:53.152Z,3.95
2018-12-12T19:11:21.836Z,3.98
2018-12-12T19:13:50.238Z,3.92
2018-12-12T19:16:18.886Z,3.89
2018-12-12T19:18:47.489Z,3.94
2018-12-12T19:21:18.499Z,3.86
2018-12-12T19:23:47.919Z,3.88
2018-12-12T19:26:20.027Z,3.90
2018-12-12T19:28:48.915Z,3.88
2018-12-12T19:31:18.109Z,3.76
2018-12-12T19:33:46.540Z,3.70
2018-12-12T19:36:16.415Z,3.68
2018-12-12T19:38:44.954Z,3.64
2018-12-12T19:41:13.424Z,3.61
2018-12-12T19:43:42.609Z,3.52
2018-12-12T19:46:11.631Z,3.52
2018-12-12T19:48:40.106Z,3.42
2018-12-12T19:51:11.258Z,3.35
2018-12-12T19:53:39.895Z,3.45
2018-12-12T19:56:08.455Z,3.53
2018-12-12T19:58:37.166Z,3.60
2018-12-12T20:01:05.648Z,3.63
2018-12-12T20:03:34.980Z,3.63
2018-12-12T20:06:03.735Z,3.63
2018-12-12T20:08:32.549Z,3.67
2018-12-12T20:11:01.009Z,3.69
2018-12-12T20:13:29.512Z,3.65
2018-12-12T20:15:57.959Z,3.68
2018-12-12T20:18:28.197Z,3.69
2018-12-12T20:20:56.701Z,3.67
2018-12-12T20:23:25.414Z,3.62
2018-12-12T20:25:54.083Z,3.61
2018-12-12T20:28:25.975Z,3.67
2018-12-12T20:30:55.314Z,3.58
2018-12-12T20:33:24.158Z,3.62
2018-12-12T20:35:53.716Z,3.65
2018-12-12T20:38:22.344Z,3.66
2018-12-12T20:40:55.028Z,3.67
2018-12-12T20:43:23.854Z,3.62
2018-12-12T20:45:52.357Z,3.57
2018-12-12T20:48:21.496Z,3.61
2018-12-12T20:50:53.077Z,3.63
2018-12-12T20:53:23.433Z,3.61
2018-12-12T20:55:53.894Z,3.62
2018-12-12T20:58:23.106Z,3.70
2018-12-12T21:00:53.579Z,3.67
2018-12-12T21:03:22.120Z,3.53
2018-12-12T21:05:54.662Z,3.59
2018-12-12T21:08:24.243Z,3.62
2018-12-12T21:10:53.895Z,3.57
2018-12-12T21:13:22.373Z,3.54
2018-12-12T21:15:52.248Z,3.59
2018-12-12T21:18:21.853Z,3.52
2018-12-12T21:20:50.555Z,3.57
2018-12-12T21:23:19.041Z,3.56
2018-12-12T21:25:49.623Z,3.54
2018-12-12T21:28:18.841Z,3.53
2018-12-12T21:30:51.622Z,3.52
2018-12-12T21:33:20.823Z,3.59
2018-12-12T21:36:00.804Z,3.52
2018-12-12T21:38:27.874Z,3.49
2018-12-12T21:40:56.711Z,3.38
2018-12-12T21:43:26.106Z,3.37
2018-12-12T21:45:56.138Z,3.40
2018-12-12T21:48:27.955Z,3.47
2018-12-12T21:50:56.467Z,3.38
2018-12-12T21:53:25.046Z,3.41
2018-12-12T21:55:53.904Z,3.40
2018-12-12T21:58:22.358Z,3.47
2018-12-12T22:00:53.385Z,3.39
2018-12-12T22:03:21.941Z,3.38
2018-12-12T22:05:50.695Z,3.35
2018-12-12T22:08:19.386Z,3.34
2018-12-12T22:10:49.329Z,3.19
2018-12-12T22:13:18.029Z,3.22
2018-12-12T22:15:46.501Z,3.18
2018-12-12T22:18:14.935Z,3.22
2018-12-12T22:20:43.385Z,3.16
2018-12-12T22:23:13.857Z,3.11
2018-12-12T22:25:43.400Z,3.17
2018-12-12T22:28:12.471Z,3.11
2018-12-12T22:30:41.925Z,3.12
2018-12-12T22:33:15.368Z,3.16
2018-12-12T22:35:45.130Z,3.13
2018-12-12T22:38:13.891Z,3.10
2018-12-12T22:40:42.435Z,3.08
2018-12-12T22:43:11.405Z,3.05
2018-12-12T22:45:41.764Z,3.06
2018-12-12T22:48:11.534Z,3.06
2018-12-12T22:50:40.044Z,3.11
2018-12-12T22:53:09.463Z,3.10
2018-12-12T22:55:38.217Z,3.20
2018-12-12T22:58:08.380Z,3.11
2018-12-12T23:00:38.078Z,3.14
2018-12-12T23:03:06.630Z,3.11
2018-12-12T23:05:37.410Z,2.98
2018-12-12T23:08:06.356Z,2.84
2018-12-12T23:10:36.378Z,2.93
2018-12-12T23:13:05.852Z,2.94
2018-12-12T23:15:36.109Z,2.92
2018-12-12T23:18:06.499Z,2.84
2018-12-12T23:20:34.961Z,2.82
2018-12-12T23:23:03.447Z,2.79
2018-12-12T23:25:32.127Z,2.76
2018-12-12T23:28:00.686Z,2.73
2018-12-12T23:30:29.338Z,2.77
2018-12-12T23:32:57.803Z,2.83
2018-12-12T23:35:26.347Z,2.87
2018-12-12T23:37:54.804Z,2.79
2018-12-12T23:40:23.659Z,2.84
2018-12-12T23:42:52.108Z,2.69
2018-12-12T23:45:20.875Z,2.64
2018-12-12T23:47:49.348Z,2.48
2018-12-12T23:50:18.867Z,2.48
2018-12-12T23:52:47.336Z,2.51
2018-12-12T23:55:15.762Z,2.53
2018-12-12T23:57:44.241Z,2.56
